Date,TemperatureHighF,TemperatureAvgF,TemperatureLowF,DewpointHighF,DewpointAvgF,DewpointLowF,HumidityHigh,HumidityAvg,HumidityLow,PressureMaxIn,PressureMinIn,WindSpeedMaxMPH,WindSpeedAvgMPH,GustSpeedMaxMPH,PrecipitationSumIn
2013-1-1,76.0,62.3,53.0,-99.9,-99.9,-99.9,0,0,100,0.00,40.00,19,8,0,0.00
2013-1-2,56.0,51.1,44.0,-99.9,-99.9,-99.9,0,0,100,0.00,40.00,16,9,0,0.00
2013-1-3,50.0,42.9,38.0,-99.9,-99.9,-99.9,0,0,100,0.00,40.00,13,7,0,0.00
2013-1-4,61.0,45.4,36.0,-99.9,-99.9,-99.9,0,0,100,0.00,40.00,14,7,0,0.00
2013-1-5,55.0,48.9,42.0,-99.9,-99.9,-99.9,0,0,100,0.00,40.00,12,7,0,0.00
2013-1-6,51.0,48.7,45.0,-99.9,-99.9,-99.9,0,0,100,0.00,40.00,17,7,0,0.00
2013-1-7,67.0,51.7,41.0,-99.9,-99.9,-99.9,0,0,100,0.00,40.00,15,8,0,0.00
2013-1-8,69.0,57.8,49.0,-99.9,-99.9,-99.9,0,0,100,0.00,40.00,11,6,0,0.00
2013-1-9,66.0,62.6,58.0,-99.9,-99.9,-99.9,0,0,100,0.00,40.00,14,7,0,0.00
2013-1-10,72.0,65.1,60.0,-99.9,-99.9,-99.9,0,0,100,0.00,40.00,23,10,0,0.00
2013-1-11,75.0,66.4,60.0,-99.9,-99.9,-99.9,0,0,100,0.00,40.00,12,4,0,0.00
2013-1-12,73.0,66.0,63.0,-99.9,-99.9,-99.9,0,0,100,0.00,40.00,16,3,0,0.00
2013-1-13,71.0,66.9,64.0,-99.9,-99.9,-99.9,0,0,100,0.00,40.00,16,8,0,0.00
2013-1-14,68.0,57.4,47.0,-99.9,-99.9,-99.9,0,0,100,0.00,40.00,16,6,0,0.00
2013-1-15,68.0,56.9,47.0,-99.9,-99.9,-99.9,0,0,100,0.00,40.00,15,2,0,0.00
2013-1-16,68.0,50.9,44.0,-99.9,-99.9,-99.9,0,0,100,0.00,40.00,13,6,0,0.00
2013-1-17,54.0,44.2,37.0,-99.9,-99.9,-99.9,0,0,100,0.00,40.00,25,11,0,0.00
2013-1-18,64.0,47.1,38.0,-99.9,-99.9,-99.9,0,0,100,0.00,40.00,20,8,0,0.00
2013-1-19,70.0,49.5,38.0,-99.9,-99.9,-99.9,0,0,100,0.00,40.00,9,4,0,0.00
2013-1-20,68.0,52.9,39.0,-99.9,-99.9,-99.9,0,0,100,0.00,40.00,9,4,0,0.00
2013-1-21,70.0,56.1,46.0,-99.9,-99.9,-99.9,0,0,100,0.00,40.00,11,6,0,0.00
2013-1-22,64.0,49.6,41.0,-99.9,-99.9,-99.9,0,0,100,0.00,40.00,15,6,0,0.00
2013-1-23,69.0,51.8,37.0,-99.9,-99.9,-99.9,0,0,100,0.00,40.00,16,4,0,0.00
2013-1-24,79.0,61.2,48.0,-99.9,-99.9,-99.9,0,0,100,0.00,40.00,14,6,0,0.00
2013-1-25,75.0,60.2,50.0,-99.9,-99.9,-99.9,0,0,100,0.00,40.00,17,5,0,0.00
2013-1-26,76.0,62.2,54.0,-99.9,-99.9,-99.9,0,0,100,0.00,40.00,12,5,0,0.00
2013-1-27,73.0,60.2,49.0,-99.9,-99.9,-99.9,0,0,100,0.00,40.00,11,4,0,0.00
2013-1-28,73.0,63.3,53.0,-99.9,-99.9,-99.9,0,0,100,0.00,40.00,13,5,0,0.00
2013-1-29,74.0,66.7,63.0,-99.9,-99.9,-99.9,0,0,100,0.00,40.00,19,7,0,0.00
2013-1-30,75.0,60.7,45.0,-99.9,-99.9,-99.9,0,0,100,0.00,40.00,24,8,0,0.00
2013-1-31,65.0,53.8,42.0,-99.9,-99.9,-99.9,0,0,100,0.00,40.00,12,6,0,0.00
2013-2-1,65.0,51.3,44.0,-99.9,-99.9,-99.9,0,0,100,0.00,40.00,12,4,0,0.00
2013-2-2,65.0,51.6,37.0,-99.9,-99.9,-99.9,0,0,100,0.00,40.00,14,7,0,0.00
2013-2-3,67.0,56.4,45.0,-99.9,-99.9,-99.9,0,0,100,0.00,40.00,12,6,0,0.00
2013-2-4,63.0,54.4,43.0,-99.9,-99.9,-99.9,0,0,100,0.00,40.00,10,3,0,0.00
2013-2-5,71.0,59.8,53.0,-99.9,-99.9,-99.9,0,0,100,0.00,40.00,12,4,0,0.00
2013-2-6,71.0,60.2,53.0,-99.9,-99.9,-99.9,0,0,100,0.00,40.00,12,4,0,0.00
2013-2-7,82.0,65.1,56.0,-99.9,-99.9,-99.9,0,0,100,0.00,40.00,32,8,0,0.00
2013-2-8,77.0,60.5,52.0,-99.9,-99.9,-99.9,0,0,100,0.00,40.00,16,3,0,0.00
2013-2-9,70.0,57.2,47.0,-99.9,-99.9,-99.9,0,0,100,0.00,40.00,15,8,0,0.00
2013-2-10,70.0,64.1,58.0,-99.9,-99.9,-99.9,0,0,100,0.00,40.00,19,11,0,0.00
2013-2-11,70.0,63.1,58.0,-99.9,-99.9,-99.9,0,0,100,0.00,40.00,17,5,0,0.00
2013-2-12,71.0,62.7,57.0,-99.9,-99.9,-99.9,0,0,100,0.00,40.00,21,8,0,0.00
2013-2-13,69.0,54.5,46.0,-99.9,-99.9,-99.9,0,0,100,0.00,40.00,13,6,0,0.00
2013-2-14,62.0,48.4,41.0,-99.9,-99.9,-99.9,0,0,100,0.00,40.00,12,2,0,0.00
2013-2-15,68.0,52.7,38.0,-99.9,-99.9,-99.9,0,0,100,0.00,40.00,13,3,0,0.00
2013-2-16,60.0,49.5,36.0,-99.9,-99.9,-99.9,0,0,100,0.00,40.00,13,3,0,0.00
2013-2-17,56.0,44.4,30.0,-99.9,-99.9,-99.9,0,0,100,0.00,40.00,11,4,0,0.00
2013-2-18,65.0,58.0,48.0,-99.9,-99.9,-99.9,0,0,100,0.00,40.00,21,13,0,0.00
2013-2-19,74.0,61.7,48.0,-99.9,-99.9,-99.9,0,0,100,0.00,40.00,22,10,0,0.00
2013-2-20,63.0,49.6,41.0,-99.9,-99.9,-99.9,0,0,100,0.00,40.00,19,7,0,0.00
2013-2-21,65.0,56.8,47.0,-99.9,-99.9,-99.9,0,0,100,0.00,40.00,19,9,0,0.00
2013-2-22,70.0,65.1,60.0,-99.9,-99.9,-99.9,0,0,100,0.00,40.00,17,5,0,0.00
2013-2-23,64.0,58.4,56.0,-99.9,-99.9,-99.9,0,0,100,0.00,40.00,17,6,0,0.00
2013-2-24,74.0,59.6,50.0,-99.9,-99.9,-99.9,0,0,100,0.00,40.00,15,6,0,0.00
2013-2-25,66.0,61.6,58.0,-99.9,-99.9,-99.9,0,0,100,0.00,40.00,29,11,0,0.00
2013-2-26,67.0,57.6,52.0,-99.9,-99.9,-99.9,0,0,100,0.00,40.00,22,12,0,0.00
2013-2-27,69.0,55.5,46.0,-99.9,-99.9,-99.9,0,0,100,0.00,40.00,15,6,0,0.00
2013-2-28,64.0,52.9,44.0,-99.9,-99.9,-99.9,0,0,100,0.00,40.00,12,4,0,0.00
2013-3-1,65.0,49.1,41.0,-99.9,-99.9,-99.9,0,0,100,0.00,40.00,18,6,0,0.00
2013-3-2,52.0,41.8,33.0,-99.9,-99.9,-99.9,0,0,100,0.00,40.00,17,8,0,0.00
2013-3-3,61.0,43.6,29.0,-99.9,-99.9,-99.9,0,0,100,0.00,40.00,14,6,0,0.00
2013-3-4,64.0,51.6,35.0,-99.9,-99.9,-99.9,0,0,100,0.00,40.00,16,7,0,0.00
2013-3-5,75.0,64.2,48.0,-99.9,-99.9,-99.9,0,0,100,0.00,40.00,28,11,0,0.00
2013-3-6,68.0,51.8,40.0,-99.9,-99.9,-99.9,0,0,100,0.00,40.00,19,8,0,0.00
2013-3-7,65.0,50.4,39.0,-99.9,-99.9,-99.9,0,0,100,0.00,40.00,17,8,0,0.00
2013-3-8,75.0,55.3,38.0,-99.9,-99.9,-99.9,0,0,100,0.00,40.00,13,3,0,0.00
2013-3-9,69.0,58.6,47.0,-99.9,-99.9,-99.9,0,0,100,0.00,40.00,18,7,0,0.00
2013-3-10,73.0,65.4,60.0,-99.9,-99.9,-99.9,0,0,100,0.00,40.00,23,14,0,0.00
2013-3-11,67.0,58.0,46.0,-99.9,-99.9,-99.9,0,0,100,0.00,40.00,22,8,0,0.00
2013-3-12,72.0,54.7,41.0,-99.9,-99.9,-99.9,0,0,100,0.00,40.00,14,5,0,0.00
2013-3-13,67.0,52.2,42.0,-99.9,-99.9,-99.9,0,0,100,0.00,40.00,15,5,0,0.00
2013-3-14,68.0,53.3,41.0,-99.9,-99.9,-99.9,0,0,100,0.00,40.00,21,8,0,0.00
2013-3-15,75.0,59.4,44.0,-99.9,-99.9,-99.9,0,0,100,0.00,40.00,18,8,0,0.00
2013-3-16,79.0,64.4,49.0,-99.9,-99.9,-99.9,0,0,100,0.00,40.00,19,8,0,0.00
2013-3-17,74.0,62.0,53.0,-99.9,-99.9,-99.9,0,0,100,0.00,40.00,13,4,0,0.00
2013-3-18,75.0,66.8,62.0,-99.9,-99.9,-99.9,0,0,100,0.00,40.00,16,7,0,0.00
2013-3-19,85.0,68.0,59.0,-99.9,-99.9,-99.9,0,0,100,0.00,40.00,21,9,0,0.00
2013-3-20,72.0,60.5,47.0,-99.9,-99.9,-99.9,0,0,100,0.00,40.00,22,8,0,0.00
2013-3-21,70.0,55.6,44.0,-99.9,-99.9,-99.9,0,0,100,0.00,40.00,14,5,0,0.00
2013-3-22,68.0,60.8,54.0,-99.9,-99.9,-99.9,0,0,100,0.00,40.00,19,10,0,0.00
2013-3-23,80.0,66.2,61.0,-99.9,-99.9,-99.9,0,0,100,0.00,40.00,17,6,0,0.00
2013-3-24,86.0,76.1,63.0,-99.9,-99.9,-99.9,0,0,100,0.00,40.00,24,15,0,0.00
2013-3-25,80.0,80.0,80.0,-99.9,-99.9,-99.9,0,0,100,0.00,40.00,24,24,0,0.00
2013-3-26,80.0,80.0,80.0,-99.9,-99.9,-99.9,0,0,100,0.00,40.00,24,24,0,0.00
2013-3-27,80.0,80.0,80.0,-99.9,-99.9,-99.9,0,0,100,0.00,40.00,24,24,0,0.00
2013-3-28,80.0,80.0,80.0,-99.9,-99.9,-99.9,0,0,100,0.00,40.00,24,24,0,0.00
2013-3-29,80.0,80.0,80.0,-99.9,-99.9,-99.9,0,0,100,0.00,40.00,24,24,0,0.00
2013-3-30,80.0,80.0,80.0,-99.9,-99.9,-99.9,0,0,100,0.00,40.00,24,24,0,0.00
2013-3-31,80.0,80.0,80.0,-99.9,-99.9,-99.9,0,0,100,0.00,40.00,24,24,0,0.00
2013-6-3,80.0,80.0,80.0,-99.9,-99.9,-99.9,0,0,100,0.00,40.00,24,24,0,0.00
2013-6-4,80.0,80.0,80.0,-99.9,-99.9,-99.9,0,0,100,0.00,40.00,24,24,0,0.00
2013-6-5,80.0,80.0,80.0,-99.9,-99.9,-99.9,0,0,100,0.00,40.00,24,24,0,0.00
2013-6-6,80.0,80.0,80.0,-99.9,-99.9,-99.9,0,0,100,0.00,40.00,24,24,0,0.00
2013-6-7,80.0,80.0,80.0,-99.9,-99.9,-99.9,0,0,100,0.00,40.00,24,24,0,0.00
2013-6-8,80.0,80.0,80.0,-99.9,-99.9,-99.9,0,0,100,0.00,40.00,24,24,0,0.00
2013-6-9,80.0,80.0,80.0,-99.9,-99.9,-99.9,0,0,100,0.00,40.00,24,24,0,0.00
2013-6-10,80.0,80.0,80.0,-99.9,-99.9,-99.9,0,0,100,0.00,40.00,24,24,0,0.00
2013-6-11,80.0,80.0,80.0,-99.9,-99.9,-99.9,0,0,100,0.00,40.00,24,24,0,0.00
2013-6-12,80.0,80.0,80.0,-99.9,-99.9,-99.9,0,0,100,0.00,40.00,24,24,0,0.00
2013-6-13,80.0,80.0,80.0,-99.9,-99.9,-99.9,0,0,100,0.00,40.00,24,24,0,0.00
2013-6-14,80.0,80.0,80.0,-99.9,-99.9,-99.9,0,0,100,0.00,40.00,24,24,0,0.00
2013-6-15,80.0,80.0,80.0,-99.9,-99.9,-99.9,0,0,100,0.00,40.00,24,24,0,0.00
2013-6-16,80.0,80.0,80.0,-99.9,-99.9,-99.9,0,0,100,0.00,40.00,24,24,0,0.00
2013-6-17,80.0,80.0,80.0,-99.9,-99.9,-99.9,0,0,100,0.00,40.00,24,24,0,0.00
2013-6-18,80.0,80.0,80.0,-99.9,-99.9,-99.9,0,0,100,0.00,40.00,24,24,0,0.00
2013-6-19,80.0,80.0,80.0,-99.9,-99.9,-99.9,0,0,100,0.00,40.00,24,24,0,0.00
2013-6-20,80.0,80.0,80.0,-99.9,-99.9,-99.9,0,0,100,0.00,40.00,24,24,0,0.00
2013-6-22,80.0,80.0,80.0,-99.9,-99.9,-99.9,0,0,100,0.00,40.00,24,24,0,0.00
2013-6-23,80.0,80.0,80.0,-99.9,-99.9,-99.9,0,0,100,0.00,40.00,24,24,0,0.00
2013-6-24,80.0,80.0,80.0,-99.9,-99.9,-99.9,0,0,100,0.00,40.00,24,24,0,0.00
2013-6-25,80.0,80.0,80.0,-99.9,-99.9,-99.9,0,0,100,0.00,40.00,24,24,0,0.00
2013-6-26,80.0,80.0,80.0,-99.9,-99.9,-99.9,0,0,100,0.00,40.00,24,24,0,0.00
2013-6-27,80.0,80.0,80.0,-99.9,-99.9,-99.9,0,0,100,0.00,40.00,24,24,0,0.00
2013-6-28,80.0,80.0,80.0,-99.9,-99.9,-99.9,0,0,100,0.00,40.00,24,24,0,0.00
2013-6-29,80.0,80.0,80.0,-99.9,-99.9,-99.9,0,0,100,0.00,40.00,24,24,0,0.00
2013-6-30,80.0,80.0,80.0,-99.9,-99.9,-99.9,0,0,100,0.00,40.00,24,24,0,0.00
2013-7-1,80.0,80.0,80.0,-99.9,-99.9,-99.9,0,0,100,0.00,40.00,24,24,0,0.00
2013-7-2,80.0,80.0,80.0,-99.9,-99.9,-99.9,0,0,100,0.00,40.00,24,24,0,0.00
2013-7-3,80.0,80.0,80.0,-99.9,-99.9,-99.9,0,0,100,0.00,40.00,24,24,0,0.00
2013-7-4,80.0,80.0,80.0,-99.9,-99.9,-99.9,0,0,100,0.00,40.00,24,24,0,0.00
2013-7-5,80.0,80.0,80.0,-99.9,-99.9,-99.9,0,0,100,0.00,40.00,24,24,0,0.00
2013-7-6,80.0,80.0,80.0,-99.9,-99.9,-99.9,0,0,100,0.00,40.00,24,24,0,0.00
2013-7-7,80.0,80.0,80.0,-99.9,-99.9,-99.9,0,0,100,0.00,40.00,24,24,0,0.00
2013-7-8,80.0,79.2,80.0,-99.9,-99.9,-99.9,0,0,100,0.00,40.00,24,24,0,0.00
2013-7-9,80.0,80.0,80.0,-99.9,-99.9,-99.9,0,0,100,0.00,40.00,24,24,0,0.00
2013-7-10,80.0,78.5,80.0,-99.9,-99.9,-99.9,0,0,100,0.00,40.00,24,24,0,0.00
2013-7-11,80.0,80.0,80.0,-99.9,-99.9,-99.9,0,0,100,0.00,40.00,24,24,0,0.00
2013-7-12,80.0,80.0,80.0,-99.9,-99.9,-99.9,0,0,100,0.00,40.00,24,24,0,0.00
2013-7-13,80.0,80.0,80.0,-99.9,-99.9,-99.9,0,0,100,0.00,40.00,24,24,0,0.00
2013-7-14,80.0,80.0,80.0,-99.9,-99.9,-99.9,0,0,100,0.00,40.00,24,24,0,0.00
2013-7-15,80.0,80.0,80.0,-99.9,-99.9,-99.9,0,0,100,0.00,40.00,24,24,0,0.00
2013-7-16,80.0,80.0,80.0,-99.9,-99.9,-99.9,0,0,100,0.00,40.00,24,24,0,0.00
2013-7-17,80.0,80.0,80.0,-99.9,-99.9,-99.9,0,0,100,0.00,40.00,24,24,0,0.00
2013-7-18,80.0,80.0,80.0,-99.9,-99.9,-99.9,0,0,100,0.00,40.00,24,24,0,0.00
2013-7-19,80.0,80.0,80.0,-99.9,-99.9,-99.9,0,0,100,0.00,40.00,24,24,0,0.00
2013-7-20,80.0,80.0,80.0,-99.9,-99.9,-99.9,0,0,100,0.00,40.00,24,24,0,0.00
2013-7-21,80.0,80.0,80.0,-99.9,-99.9,-99.9,0,0,100,0.00,40.00,24,24,0,0.00
2013-7-22,80.0,80.0,80.0,-99.9,-99.9,-99.9,0,0,100,0.00,40.00,24,24,0,0.00
2013-7-23,80.0,80.0,80.0,-99.9,-99.9,-99.9,0,0,100,0.00,40.00,24,24,0,0.00
2013-7-24,80.0,80.0,80.0,-99.9,-99.9,-99.9,0,0,100,0.00,40.00,24,24,0,0.00
2013-7-25,80.0,80.0,80.0,-99.9,-99.9,-99.9,0,0,100,0.00,40.00,24,24,0,0.00
2013-7-26,80.0,80.0,80.0,-99.9,-99.9,-99.9,0,0,100,0.00,40.00,24,24,0,0.00
2013-7-27,80.0,80.0,80.0,-99.9,-99.9,-99.9,0,0,100,0.00,40.00,24,24,0,0.00
2013-7-28,80.0,80.0,80.0,-99.9,-99.9,-99.9,0,0,100,0.00,40.00,24,24,0,0.00
2013-7-29,80.0,80.0,80.0,-99.9,-99.9,-99.9,0,0,100,0.00,40.00,24,24,0,0.00
2013-7-30,80.0,80.0,80.0,-99.9,-99.9,-99.9,0,0,100,0.00,40.00,24,24,0,0.00
2013-7-31,80.0,80.0,80.0,-99.9,-99.9,-99.9,0,0,100,0.00,40.00,24,24,0,0.00
2013-8-2,80.0,80.0,80.0,-99.9,-99.9,-99.9,0,0,100,0.00,40.00,24,24,0,0.00
2013-8-3,80.0,80.0,80.0,-99.9,-99.9,-99.9,0,0,100,0.00,40.00,24,24,0,0.00
2013-8-4,80.0,80.0,80.0,-99.9,-99.9,-99.9,0,0,100,0.00,40.00,24,24,0,0.00
2013-8-5,80.0,80.0,80.0,-99.9,-99.9,-99.9,0,0,100,0.00,40.00,24,24,0,0.00
2013-8-6,80.0,80.0,80.0,-99.9,-99.9,-99.9,0,0,100,0.00,40.00,24,24,0,0.00
2013-8-7,80.0,80.0,80.0,-99.9,-99.9,-99.9,0,0,100,0.00,40.00,24,24,0,0.00
2013-8-8,80.0,80.0,80.0,-99.9,-99.9,-99.9,0,0,100,0.00,40.00,24,24,0,0.00
2013-8-9,80.0,80.0,80.0,-99.9,-99.9,-99.9,0,0,100,0.00,40.00,24,24,0,0.00
2013-8-10,80.0,80.0,80.0,-99.9,-99.9,-99.9,0,0,100,0.00,40.00,24,24,0,0.00
2013-8-11,80.0,80.0,80.0,-99.9,-99.9,-99.9,0,0,100,0.00,40.00,24,24,0,0.00
2013-8-21,80.0,80.0,80.0,-99.9,-99.9,-99.9,0,0,100,0.00,40.00,24,24,0,0.00
2013-8-22,80.0,80.0,80.0,-99.9,-99.9,-99.9,0,0,100,0.00,40.00,24,24,0,0.00
2013-8-23,80.0,80.0,80.0,-99.9,-99.9,-99.9,0,0,100,0.00,40.00,24,24,0,0.00
2013-8-24,80.0,78.4,80.0,-99.9,-99.9,-99.9,0,0,100,0.00,40.00,24,24,0,0.00
2013-8-25,80.0,80.0,80.0,-99.9,-99.9,-99.9,0,0,100,0.00,40.00,24,24,0,0.00
2013-8-26,80.0,80.0,80.0,-99.9,-99.9,-99.9,0,0,100,0.00,40.00,24,24,0,0.00
2013-8-27,80.0,80.0,80.0,-99.9,-99.9,-99.9,0,0,100,0.00,40.00,24,24,0,0.00
2013-12-27,64.0,52.1,44.0,-99.9,-99.9,-99.9,0,0,100,0.00,40.00,17,9,0,0.00
2013-12-28,53.0,47.2,47.0,-99.9,-99.9,-99.9,0,0,100,0.00,40.00,16,8,0,0.00
2013-12-29,59.0,49.2,43.0,-99.9,-99.9,-99.9,0,0,100,0.00,40.00,12,4,0,0.00
2013-12-30,58.0,48.9,40.0,-99.9,-99.9,-99.9,0,0,100,0.00,40.00,8,1,0,0.00
2013-12-31,51.0,46.2,44.0,-99.9,-99.9,-99.9,0,0,100,0.00,40.00,13,8,0,0.00
2014-1-1,62.0,52.5,45.0,-99.9,-99.9,-99.9,0,0,100,0.00,40.00,9,5,0,0.00
2014-1-2,61.0,52.8,36.0,-99.9,-99.9,-99.9,0,0,100,0.00,40.00,19,7,0,0.00